createdAt,value
2019-02-05T00:00:49.938Z,-0.32
2019-02-05T00:03:33.394Z,-0.59
2019-02-05T00:06:23.159Z,-0.66
2019-02-05T00:09:09.541Z,-0.41
2019-02-05T00:11:59.255Z,-0.38
2019-02-05T00:14:42.193Z,-0.41
2019-02-05T00:17:31.972Z,-0.53
2019-02-05T00:20:14.840Z,-0.59
2019-02-05T00:23:04.631Z,-0.59
2019-02-05T00:25:46.774Z,-0.67
2019-02-05T00:28:36.551Z,-0.67
2019-02-05T00:31:19.143Z,-0.61
2019-02-05T00:34:08.895Z,-0.58
2019-02-05T00:36:52.398Z,-0.51
2019-02-05T00:39:42.190Z,-0.63
2019-02-05T00:42:24.998Z,-0.57
2019-02-05T00:45:14.978Z,-0.52
2019-02-05T00:47:58.927Z,-0.35
2019-02-05T00:50:48.679Z,-0.41
2019-02-05T00:53:30.719Z,-0.64
2019-02-05T00:56:20.458Z,-0.48
2019-02-05T01:01:59.349Z,-0.64
2019-02-05T01:04:49.096Z,-0.77
2019-02-05T01:07:31.133Z,-0.71
2019-02-05T01:10:41.525Z,-0.50
2019-02-05T01:13:24.093Z,-0.63
2019-02-05T01:16:13.909Z,-0.55
2019-02-05T01:18:56.050Z,-0.57
2019-02-05T01:21:45.825Z,-0.59
2019-02-05T01:24:35.549Z,-0.81
2019-02-05T01:27:17.963Z,-0.91
2019-02-05T01:30:09.051Z,-0.76
2019-02-05T01:32:58.851Z,-0.74
2019-02-05T01:35:48.653Z,-0.62
2019-02-05T01:38:30.854Z,-0.71
2019-02-05T01:41:20.611Z,-1.06
2019-02-05T01:44:06.482Z,-1.13
2019-02-05T01:46:48.963Z,-1.06
2019-02-05T01:49:38.728Z,-1.12
2019-02-05T01:55:32.203Z,-1.34
2019-02-05T01:58:16.665Z,-1.34
2019-02-05T02:01:07.018Z,-1.16
2019-02-05T02:03:56.758Z,-1.30
2019-02-05T02:06:39.015Z,-1.21
2019-02-05T02:09:29.247Z,-1.02
2019-02-05T02:12:19.029Z,-1.01
2019-02-05T02:18:04.596Z,-0.90
2019-02-05T02:20:54.344Z,-0.84
2019-02-05T02:23:44.148Z,-0.84
2019-02-05T02:26:33.910Z,-0.83
2019-02-05T02:29:16.543Z,-0.94
2019-02-05T02:32:06.297Z,-1.01
2019-02-05T02:34:56.121Z,-0.98
2019-02-05T02:37:45.874Z,-1.12
2019-02-05T02:40:35.987Z,-1.27
2019-02-05T02:43:25.762Z,-1.29
2019-02-05T02:46:11.550Z,-1.36
2019-02-05T02:48:53.584Z,-1.41
2019-02-05T02:51:43.329Z,-1.68
2019-02-05T02:54:25.778Z,-1.51
2019-02-05T02:57:15.574Z,-1.52
2019-02-05T03:00:01.646Z,-1.69
2019-02-05T03:02:51.811Z,-1.44
2019-02-05T03:05:44.289Z,-1.44
2019-02-05T03:08:26.331Z,-1.51
2019-02-05T03:11:16.928Z,-1.69
2019-02-05T03:14:06.830Z,-1.68
2019-02-05T03:16:56.583Z,-1.61
2019-02-05T03:20:05.751Z,-1.54
2019-02-05T03:25:51.631Z,-1.56
2019-02-05T03:28:41.363Z,-1.60
2019-02-05T03:31:23.438Z,-1.60
2019-02-05T03:34:13.161Z,-1.55
2019-02-05T03:36:55.497Z,-1.58
2019-02-05T03:39:45.228Z,-1.66
2019-02-05T03:42:27.165Z,-1.66
2019-02-05T03:45:17.203Z,-1.76
2019-02-05T03:48:46.306Z,-1.81
2019-02-05T03:51:54.126Z,-1.79
2019-02-05T03:58:20.728Z,-1.80
2019-02-05T04:01:36.289Z,-1.83
2019-02-05T04:04:43.964Z,-1.89
2019-02-05T04:08:11.836Z,-2.19
2019-02-05T04:11:13.092Z,-2.41
2019-02-05T04:14:42.726Z,-2.68
2019-02-05T04:17:50.512Z,-3.28
2019-02-05T04:21:18.486Z,-3.53
2019-02-05T04:24:19.704Z,-3.70
2019-02-05T04:27:47.705Z,-3.67
2019-02-05T04:30:49.164Z,-3.61
2019-02-05T04:34:03.342Z,-3.79
2019-02-05T04:37:31.277Z,-3.63
2019-02-05T04:40:59.140Z,-3.41
2019-02-05T04:43:55.615Z,-3.27
2019-02-05T04:47:14.808Z,-3.44
2019-02-05T04:50:22.172Z,-3.53
2019-02-05T04:53:50.189Z,-4.34
2019-02-05T04:57:18.425Z,-4.23
2019-02-05T05:00:23.058Z,-4.51
2019-02-05T05:03:35.316Z,-4.51
2019-02-05T05:06:51.306Z,-4.52
2019-02-05T05:10:00.498Z,-4.48
2019-02-05T05:12:44.716Z,-4.46
2019-02-05T05:15:34.480Z,-4.42
2019-02-05T05:18:24.296Z,-4.29
2019-02-05T05:21:29.412Z,-4.38
2019-02-05T05:24:12.519Z,-4.17
2019-02-05T05:27:02.375Z,-4.21
2019-02-05T05:29:44.282Z,-4.36
2019-02-05T05:32:34.030Z,-4.18
2019-02-05T05:35:15.973Z,-4.00
2019-02-05T05:38:05.722Z,-3.70
2019-02-05T05:40:48.329Z,-3.81
2019-02-05T05:43:38.077Z,-3.34
2019-02-05T05:46:27.803Z,-3.33
2019-02-05T05:49:13.787Z,-3.31
2019-02-05T05:51:56.184Z,-3.20
2019-02-05T05:54:45.974Z,-3.14
2019-02-05T05:57:35.762Z,-3.00
2019-02-05T06:00:25.481Z,-3.36
2019-02-05T06:03:07.770Z,-3.43
2019-02-05T06:05:50.143Z,-3.22
2019-02-05T06:08:40.089Z,-3.26
2019-02-05T06:11:49.005Z,-3.29
2019-02-05T06:14:38.801Z,-3.28
2019-02-05T06:17:23.360Z,-3.55
2019-02-05T06:23:30.679Z,-3.45
2019-02-05T06:26:20.486Z,-3.65
2019-02-05T06:29:10.257Z,-3.61
2019-02-05T06:32:00.059Z,-3.63
2019-02-05T06:34:50.717Z,-3.48
2019-02-05T06:37:41.537Z,-3.47
2019-02-05T06:40:25.905Z,-3.57
2019-02-05T06:43:15.673Z,-3.86
2019-02-05T06:46:05.428Z,-3.89
2019-02-05T06:48:47.449Z,-4.02
2019-02-05T06:51:37.271Z,-3.80
2019-02-05T06:54:27.157Z,-4.20
2019-02-05T06:57:16.946Z,-4.57
2019-02-05T07:00:01.550Z,-4.84
2019-02-05T07:02:53.056Z,-4.95
2019-02-05T07:05:35.504Z,-5.05
2019-02-05T07:08:25.321Z,-5.21
2019-02-05T07:11:15.114Z,-4.94
2019-02-05T07:14:06.046Z,-4.67
2019-02-05T07:16:55.848Z,-4.25
2019-02-05T07:19:40.325Z,-3.91
2019-02-05T07:22:30.321Z,-3.50
2019-02-05T07:25:20.125Z,-3.50
2019-02-05T07:28:09.938Z,-3.08
2019-02-05T07:30:59.776Z,-3.11
2019-02-05T07:33:49.904Z,-3.00
2019-02-05T07:36:39.797Z,-3.10
2019-02-05T07:39:27.514Z,-3.07
2019-02-05T07:42:16.666Z,-3.04
2019-02-05T07:45:08.162Z,-2.75
2019-02-05T07:47:57.996Z,-2.59
2019-02-05T07:50:47.810Z,-2.54
2019-02-05T07:53:37.932Z,-2.44
2019-02-05T07:56:27.988Z,-2.46
2019-02-05T07:59:13.440Z,-2.29
2019-02-05T08:02:03.251Z,-2.24
2019-02-05T08:04:53.214Z,-2.25
2019-02-05T08:07:42.956Z,-2.20
2019-02-05T08:10:32.710Z,-2.13
2019-02-05T08:13:22.490Z,-2.31
2019-02-05T08:16:06.241Z,-2.05
2019-02-05T08:18:56.372Z,-2.10
2019-02-05T08:21:39.252Z,-2.07
2019-02-05T08:24:28.998Z,-1.91
2019-02-05T08:27:12.915Z,-1.80
2019-02-05T08:30:03.044Z,-1.55
2019-02-05T08:32:45.943Z,-1.43
2019-02-05T08:35:35.724Z,-1.13
2019-02-05T08:38:19.106Z,-1.30
2019-02-05T08:41:09.260Z,-1.59
2019-02-05T08:43:55.836Z,-1.92
2019-02-05T08:46:45.637Z,-2.12
2019-02-05T08:49:28.024Z,-2.35
2019-02-05T08:52:18.086Z,-2.45
2019-02-05T08:55:09.912Z,-2.84
2019-02-05T08:57:52.353Z,-3.17
2019-02-05T09:00:42.510Z,-2.89
2019-02-05T09:03:25.416Z,-2.73
2019-02-05T09:06:08.437Z,-2.28
2019-02-05T09:08:58.470Z,-2.10
2019-02-05T09:11:48.013Z,-2.48
2019-02-05T09:14:34.647Z,-2.81
2019-02-05T09:17:17.520Z,-2.63
2019-02-05T09:20:09.345Z,-2.54
2019-02-05T09:22:59.214Z,-2.24
2019-02-05T09:25:49.069Z,-2.06
2019-02-05T09:28:33.688Z,-1.53
2019-02-05T09:31:16.198Z,-0.97
2019-02-05T09:34:06.389Z,-0.84
2019-02-05T09:36:48.537Z,-0.44
2019-02-05T09:39:38.321Z,-0.07
2019-02-05T09:42:22.324Z,0.18
2019-02-05T09:45:12.596Z,0.30
2019-02-05T09:47:55.177Z,0.52
2019-02-05T09:50:45.349Z,0.70
2019-02-05T09:53:31.947Z,0.70
2019-02-05T09:56:21.999Z,0.93
2019-02-05T09:59:05.341Z,1.01
2019-02-05T10:01:55.141Z,1.28
2019-02-05T10:04:37.666Z,1.48
2019-02-05T10:07:27.455Z,1.49
2019-02-05T10:10:16.607Z,1.53
2019-02-05T10:13:07.482Z,1.51
2019-02-05T10:15:50.403Z,1.29
2019-02-05T10:18:40.137Z,1.63
2019-02-05T10:21:23.038Z,1.62
2019-02-05T10:24:13.673Z,0.96
2019-02-05T10:27:02.276Z,0.75
2019-02-05T10:29:57.863Z,1.05
2019-02-05T10:32:36.836Z,0.92
2019-02-05T10:35:26.649Z,0.50
2019-02-05T10:38:09.283Z,0.39
2019-02-05T10:40:59.065Z,0.65
2019-02-05T10:43:41.532Z,0.41
2019-02-05T10:46:31.276Z,0.51
2019-02-05T10:49:13.911Z,0.93
2019-02-05T10:52:03.748Z,1.14
2019-02-05T10:54:46.621Z,0.32
2019-02-05T10:57:36.405Z,-0.44
2019-02-05T11:00:26.822Z,-0.74
2019-02-05T11:03:16.563Z,-0.41
2019-02-05T11:06:02.669Z,-0.18
2019-02-05T11:08:53.488Z,-0.85
2019-02-05T11:11:40.030Z,-0.80
2019-02-05T11:14:29.821Z,-0.75
2019-02-05T11:17:14.004Z,-0.44
2019-02-05T11:20:04.768Z,-0.51
2019-02-05T11:22:47.033Z,-0.17
2019-02-05T11:25:36.980Z,0.47
2019-02-05T11:28:23.392Z,0.68
2019-02-05T11:31:15.231Z,0.77
2019-02-05T11:34:01.997Z,0.64
2019-02-05T11:36:44.206Z,-0.32
2019-02-05T11:39:34.122Z,-0.84
2019-02-05T11:42:23.992Z,-0.88
2019-02-05T11:45:15.399Z,-0.30
2019-02-05T11:48:25.763Z,-0.18
2019-02-05T11:51:08.555Z,0.08
2019-02-05T11:53:58.331Z,0.11
2019-02-05T11:56:41.183Z,-0.07
2019-02-05T11:59:31.232Z,-0.21
2019-02-05T12:02:13.714Z,0.14
2019-02-05T12:05:03.468Z,0.25
2019-02-05T12:07:45.557Z,-0.13
2019-02-05T12:10:35.749Z,0.01
2019-02-05T12:13:18.226Z,-0.19
2019-02-05T12:16:07.970Z,0.17
2019-02-05T12:18:50.323Z,0.47
2019-02-05T12:21:40.064Z,0.69
2019-02-05T12:24:25.118Z,1.14
2019-02-05T12:27:14.856Z,1.15
2019-02-05T12:29:57.531Z,0.83
2019-02-05T12:32:47.271Z,0.55
2019-02-05T12:35:29.546Z,0.87
2019-02-05T12:38:19.357Z,1.24
2019-02-05T12:41:02.648Z,1.04
2019-02-05T12:43:52.406Z,0.99
2019-02-05T12:46:34.678Z,1.02
2019-02-05T12:49:24.434Z,0.96
2019-02-05T12:52:12.349Z,0.12
2019-02-05T12:55:12.801Z,0.34
2019-02-05T12:57:46.511Z,-0.07
2019-02-05T13:00:38.649Z,-0.27
2019-02-05T13:03:20.663Z,-0.14
2019-02-05T13:06:10.403Z,-0.68
2019-02-05T13:08:52.889Z,-0.59
2019-02-05T13:11:42.604Z,-0.53
2019-02-05T13:14:24.675Z,-0.26
2019-02-05T13:17:14.464Z,-0.62
2019-02-05T13:19:57.389Z,-0.60
2019-02-05T13:22:47.185Z,-0.70
2019-02-05T13:25:33.471Z,-1.21
2019-02-05T13:28:15.578Z,-0.72
2019-02-05T13:31:08.088Z,-0.38
2019-02-05T13:33:50.599Z,-0.45
2019-02-05T13:36:40.393Z,-0.66
2019-02-05T13:39:30.296Z,-0.86
2019-02-05T13:42:20.039Z,-0.89
2019-02-05T13:48:34.199Z,-1.00
2019-02-05T13:51:20.627Z,-1.13
2019-02-05T13:54:10.391Z,-1.12
2019-02-05T13:56:54.285Z,-1.01
2019-02-05T13:59:44.005Z,-0.85
2019-02-05T14:02:26.093Z,-0.53
2019-02-05T14:05:15.813Z,-0.71
2019-02-05T14:08:07.203Z,-1.01
2019-02-05T14:10:56.959Z,-1.20
2019-02-05T14:13:46.685Z,-1.42
2019-02-05T14:16:29.375Z,-1.24
2019-02-05T14:19:19.139Z,-1.01
2019-02-05T14:22:08.887Z,-1.20
2019-02-05T14:24:51.842Z,-1.39
2019-02-05T14:27:41.744Z,-1.30
2019-02-05T14:30:39.969Z,-1.30
2019-02-05T14:33:31.503Z,-1.52
2019-02-05T14:36:14.479Z,-1.26
2019-02-05T14:42:00.791Z,-0.89
2019-02-05T14:44:50.591Z,-1.15
2019-02-05T14:47:21.279Z,-1.16
2019-02-05T14:50:52.431Z,-1.07
2019-02-05T14:53:35.021Z,-1.04
2019-02-05T14:56:25.149Z,-0.98
2019-02-05T14:59:14.953Z,-0.61
2019-02-05T15:02:03.291Z,-0.43
2019-02-05T15:04:45.839Z,-0.64
2019-02-05T15:07:35.631Z,-0.69
2019-02-05T15:10:25.579Z,-0.75
2019-02-05T15:13:34.527Z,-0.40
2019-02-05T15:19:28.047Z,-0.50
2019-02-05T15:22:10.913Z,-0.32
2019-02-05T15:25:00.723Z,-0.34
2019-02-05T15:30:54.209Z,0.00
2019-02-05T15:33:57.408Z,-0.44
2019-02-05T15:36:49.223Z,-0.77
2019-02-05T15:39:36.117Z,-1.06
2019-02-05T15:42:25.808Z,-1.17
2019-02-05T15:45:13.488Z,-1.26
2019-02-05T15:48:03.395Z,-1.52
2019-02-05T15:50:45.705Z,-1.50
2019-02-05T15:53:35.445Z,-1.40
2019-02-05T15:56:17.460Z,-1.32
2019-02-05T15:59:07.223Z,-1.39
2019-02-05T16:01:49.155Z,-1.48
2019-02-05T16:04:38.862Z,-1.30
2019-02-05T16:07:21.135Z,-1.03
2019-02-05T16:13:39.180Z,-1.39
2019-02-05T16:16:22.258Z,-1.34
2019-02-05T16:19:12.064Z,-1.17
2019-02-05T16:22:02.330Z,-0.80
2019-02-05T16:24:34.292Z,-0.95
2019-02-05T16:27:24.046Z,-1.22
2019-02-05T16:30:16.980Z,-1.46
2019-02-05T16:32:58.960Z,-1.26
2019-02-05T16:35:48.697Z,-1.58
2019-02-05T16:38:32.530Z,-1.69
2019-02-05T16:41:22.240Z,-1.69
2019-02-05T16:44:04.619Z,-1.72
2019-02-05T16:46:54.446Z,-1.81
2019-02-05T16:49:36.908Z,-1.84
2019-02-05T16:52:26.943Z,-1.82
2019-02-05T16:58:13.277Z,-1.91
2019-02-05T17:04:06.320Z,-1.65
2019-02-05T17:06:56.102Z,-1.54
2019-02-05T17:09:39.818Z,-1.61
2019-02-05T17:12:29.555Z,-1.89
2019-02-05T17:15:12.580Z,-2.07
2019-02-05T17:18:02.372Z,-2.06
2019-02-05T17:20:45.176Z,-1.83
2019-02-05T17:23:35.822Z,-1.79
2019-02-05T17:26:25.630Z,-1.71
2019-02-05T17:31:59.920Z,-1.95
2019-02-05T17:34:49.704Z,-1.70
2019-02-05T17:37:32.410Z,-1.60
2019-02-05T17:43:50.300Z,-1.53
2019-02-05T17:46:31.829Z,-1.57
2019-02-05T17:49:22.277Z,-1.68
2019-02-05T17:52:10.643Z,-1.49
2019-02-05T17:54:52.887Z,-1.65
2019-02-05T17:57:42.651Z,-1.82
2019-02-05T18:03:37.006Z,-1.73
2019-02-05T18:06:20.826Z,-1.80
2019-02-05T18:09:11.186Z,-1.91
2019-02-05T18:12:01.017Z,-1.90
2019-02-05T18:14:50.812Z,-1.92
2019-02-05T18:17:40.924Z,-1.97
2019-02-05T18:23:25.501Z,-1.92
2019-02-05T18:26:15.602Z,-1.86
2019-02-05T18:29:05.829Z,-2.09
2019-02-05T18:31:55.620Z,-2.03
2019-02-05T18:34:45.673Z,-1.94
2019-02-05T18:40:31.814Z,-2.13
2019-02-05T18:43:22.796Z,-2.04
2019-02-05T18:46:07.381Z,-2.05
2019-02-05T18:49:04.653Z,-2.05
2019-02-05T18:51:41.504Z,-1.91
2019-02-05T18:54:31.266Z,-1.82
2019-02-05T18:57:14.578Z,-1.78
2019-02-05T19:03:15.028Z,-1.55
2019-02-05T19:05:51.255Z,-1.40
2019-02-05T19:08:41.348Z,-1.58
2019-02-05T19:11:25.709Z,-1.69
2019-02-05T19:14:15.813Z,-1.86
2019-02-05T19:16:58.467Z,-2.00
2019-02-05T19:22:50.028Z,-2.06
2019-02-05T19:25:55.794Z,-1.66
2019-02-05T19:28:43.382Z,-1.43
2019-02-05T19:34:31.781Z,-1.41
2019-02-05T19:37:21.631Z,-1.19
2019-02-05T19:40:04.021Z,-0.94
2019-02-05T19:42:47.069Z,-1.41
2019-02-05T19:45:56.323Z,-1.27
2019-02-05T19:51:47.127Z,-1.39
2019-02-05T19:54:37.216Z,-1.30
2019-02-05T19:57:20.055Z,-1.22
2019-02-05T20:03:14.093Z,-1.40
2019-02-05T20:05:56.639Z,-1.23
2019-02-05T20:08:59.807Z,-1.09
2019-02-05T20:11:42.160Z,-1.21
2019-02-05T20:14:31.971Z,-1.17
2019-02-05T20:17:14.638Z,-1.34
2019-02-05T20:20:05.008Z,-1.36
2019-02-05T20:22:47.967Z,-1.30
2019-02-05T20:25:37.767Z,-1.24
2019-02-05T20:28:20.394Z,-1.25
2019-02-05T20:31:10.131Z,-1.42
2019-02-05T20:33:52.731Z,-1.45
2019-02-05T20:36:42.854Z,-1.73
2019-02-05T20:39:27.367Z,-1.57
2019-02-05T20:42:17.175Z,-1.48
2019-02-05T20:45:01.681Z,-1.55
2019-02-05T20:47:51.538Z,-1.55
2019-02-05T20:50:35.559Z,-1.44
2019-02-05T20:53:25.468Z,-1.47
2019-02-05T20:56:08.232Z,-1.36
2019-02-05T20:58:58.000Z,-1.50
2019-02-05T21:01:41.764Z,-1.52
2019-02-05T21:04:31.612Z,-1.21
2019-02-05T21:07:13.807Z,-1.12
2019-02-05T21:10:03.550Z,-1.04
2019-02-05T21:12:48.036Z,-1.53
2019-02-05T21:15:37.766Z,-1.63
2019-02-05T21:18:20.466Z,-1.60
2019-02-05T21:21:10.321Z,-1.56
2019-02-05T21:23:52.296Z,-1.33
2019-02-05T21:26:42.066Z,-1.37
2019-02-05T21:32:27.840Z,-1.45
2019-02-05T21:35:17.703Z,-1.62
2019-02-05T21:38:07.530Z,-2.00
2019-02-05T21:40:57.360Z,-1.67
2019-02-05T21:43:47.162Z,-1.50
2019-02-05T21:46:37.058Z,-1.59
2019-02-05T21:49:26.848Z,-1.72
2019-02-05T21:52:16.708Z,-2.17
2019-02-05T21:55:07.556Z,-2.30
2019-02-05T21:57:53.670Z,-2.45
2019-02-05T22:00:43.621Z,-2.63
2019-02-05T22:03:33.414Z,-2.66
2019-02-05T22:06:23.293Z,-2.66
2019-02-05T22:09:13.899Z,-2.57
2019-02-05T22:12:03.883Z,-2.52
2019-02-05T22:14:53.748Z,-2.59
2019-02-05T22:17:50.549Z,-2.68
2019-02-05T22:20:40.804Z,-2.59
2019-02-05T22:23:26.151Z,-2.64
2019-02-05T22:26:15.991Z,-2.65
2019-02-05T22:29:06.029Z,-2.48
2019-02-05T22:31:55.763Z,-2.56
2019-02-05T22:34:39.940Z,-2.44
2019-02-05T22:37:29.728Z,-2.31
2019-02-05T22:40:20.846Z,-2.11
2019-02-05T22:43:03.572Z,-1.94
2019-02-05T22:45:53.359Z,-1.78
2019-02-05T22:48:35.818Z,-2.00
2019-02-05T22:51:25.574Z,-2.31
2019-02-05T22:54:08.112Z,-2.49
2019-02-05T22:56:57.819Z,-2.29
2019-02-05T22:59:41.991Z,-2.38
2019-02-05T23:02:31.762Z,-2.68
2019-02-05T23:05:27.925Z,-2.54
2019-02-05T23:08:17.651Z,-2.46
2019-02-05T23:11:19.159Z,-2.44
2019-02-05T23:14:08.910Z,-2.54
2019-02-05T23:16:52.347Z,-2.63
2019-02-05T23:19:43.357Z,-2.52
2019-02-05T23:22:33.105Z,-2.45
2019-02-05T23:25:17.966Z,-2.50
2019-02-05T23:28:08.125Z,-2.28
2019-02-05T23:30:50.677Z,-2.15
2019-02-05T23:33:40.761Z,-2.41
2019-02-05T23:36:24.654Z,-2.30
2019-02-05T23:39:14.799Z,-2.24
2019-02-05T23:41:57.042Z,-2.32
2019-02-05T23:47:49.359Z,-2.68
2019-02-05T23:50:59.335Z,-2.69
2019-02-05T23:53:48.610Z,-2.64
2019-02-05T23:56:38.709Z,-2.34
2019-02-05T23:59:30.023Z,-2.38
